sensor_id;sensor_type;location;lat;lon;timestamp;P1;durP1;ratioP1;P2;durP2;ratioP2
35188;SDS011;21762;54.480;18.556;2023-10-31T00:00:59;57.10;;;28.80;;
35188;SDS011;21762;54.480;18.556;2023-10-31T00:03:28;63.95;;;34.13;;
35188;SDS011;21762;54.480;18.556;2023-10-31T00:05:56;67.75;;;33.78;;
35188;SDS011;21762;54.480;18.556;2023-10-31T00:08:25;65.35;;;34.22;;
35188;SDS011;21762;54.480;18.556;2023-10-31T00:10:54;65.68;;;35.13;;
35188;SDS011;21762;54.480;18.556;2023-10-31T00:13:23;65.15;;;32.78;;
35188;SDS011;21762;54.480;18.556;2023-10-31T00:15:51;57.08;;;31.23;;
35188;SDS011;21762;54.480;18.556;2023-10-31T00:18:21;51.72;;;32.85;;
35188;SDS011;21762;54.480;18.556;2023-10-31T00:20:50;63.85;;;31.77;;
35188;SDS011;21762;54.480;18.556;2023-10-31T00:23:19;66.10;;;33.97;;
35188;SDS011;21762;54.480;18.556;2023-10-31T00:25:48;68.50;;;32.90;;
35188;SDS011;21762;54.480;18.556;2023-10-31T00:28:17;62.42;;;31.95;;
35188;SDS011;21762;54.480;18.556;2023-10-31T00:30:45;54.80;;;28.58;;
35188;SDS011;21762;54.480;18.556;2023-10-31T00:33:14;57.13;;;29.67;;
35188;SDS011;21762;54.480;18.556;2023-10-31T00:35:44;60.28;;;32.67;;
35188;SDS011;21762;54.480;18.556;2023-10-31T00:38:13;56.88;;;30.80;;
35188;SDS011;21762;54.480;18.556;2023-10-31T00:40:42;57.55;;;27.58;;
35188;SDS011;21762;54.480;18.556;2023-10-31T00:43:10;60.00;;;29.85;;
35188;SDS011;21762;54.480;18.556;2023-10-31T00:45:39;58.90;;;30.65;;
35188;SDS011;21762;54.480;18.556;2023-10-31T00:48:08;56.30;;;30.48;;
35188;SDS011;21762;54.480;18.556;2023-10-31T00:50:37;53.80;;;29.50;;
35188;SDS011;21762;54.480;18.556;2023-10-31T00:53:07;59.13;;;29.98;;
35188;SDS011;21762;54.480;18.556;2023-10-31T00:55:36;60.03;;;29.15;;
35188;SDS011;21762;54.480;18.556;2023-10-31T00:58:04;52.85;;;28.98;;
35188;SDS011;21762;54.480;18.556;2023-10-31T01:00:33;54.00;;;28.67;;
35188;SDS011;21762;54.480;18.556;2023-10-31T01:03:04;53.85;;;30.13;;
35188;SDS011;21762;54.480;18.556;2023-10-31T01:05:33;50.20;;;28.23;;
35188;SDS011;21762;54.480;18.556;2023-10-31T01:08:01;60.60;;;27.92;;
35188;SDS011;21762;54.480;18.556;2023-10-31T01:10:33;50.10;;;26.83;;
35188;SDS011;21762;54.480;18.556;2023-10-31T01:13:02;60.78;;;27.48;;
35188;SDS011;21762;54.480;18.556;2023-10-31T01:15:30;50.65;;;26.45;;
35188;SDS011;21762;54.480;18.556;2023-10-31T01:17:59;52.95;;;27.95;;
35188;SDS011;21762;54.480;18.556;2023-10-31T01:20:28;54.70;;;27.13;;
35188;SDS011;21762;54.480;18.556;2023-10-31T01:22:56;50.78;;;27.65;;
35188;SDS011;21762;54.480;18.556;2023-10-31T01:25:25;48.25;;;25.30;;
35188;SDS011;21762;54.480;18.556;2023-10-31T01:27:56;48.00;;;24.92;;
35188;SDS011;21762;54.480;18.556;2023-10-31T01:30:24;45.00;;;23.33;;
35188;SDS011;21762;54.480;18.556;2023-10-31T01:32:53;50.70;;;24.90;;
35188;SDS011;21762;54.480;18.556;2023-10-31T01:35:22;49.92;;;27.00;;
35188;SDS011;21762;54.480;18.556;2023-10-31T01:37:50;48.35;;;24.35;;
35188;SDS011;21762;54.480;18.556;2023-10-31T01:40:19;55.50;;;26.15;;
35188;SDS011;21762;54.480;18.556;2023-10-31T01:42:48;50.53;;;25.17;;
35188;SDS011;21762;54.480;18.556;2023-10-31T01:45:18;53.45;;;24.83;;
35188;SDS011;21762;54.480;18.556;2023-10-31T01:47:47;46.25;;;24.30;;
35188;SDS011;21762;54.480;18.556;2023-10-31T01:50:16;50.78;;;23.38;;
35188;SDS011;21762;54.480;18.556;2023-10-31T01:52:47;59.00;;;23.92;;
35188;SDS011;21762;54.480;18.556;2023-10-31T01:55:16;56.33;;;25.25;;
35188;SDS011;21762;54.480;18.556;2023-10-31T01:57:45;65.38;;;24.85;;
35188;SDS011;21762;54.480;18.556;2023-10-31T02:00:14;59.83;;;24.35;;
35188;SDS011;21762;54.480;18.556;2023-10-31T02:02:45;62.95;;;23.08;;
35188;SDS011;21762;54.480;18.556;2023-10-31T02:05:13;64.25;;;23.73;;
35188;SDS011;21762;54.480;18.556;2023-10-31T02:07:44;62.28;;;26.13;;
35188;SDS011;21762;54.480;18.556;2023-10-31T02:10:13;71.15;;;25.95;;
35188;SDS011;21762;54.480;18.556;2023-10-31T02:12:42;64.97;;;25.40;;
35188;SDS011;21762;54.480;18.556;2023-10-31T02:15:10;69.97;;;24.40;;
35188;SDS011;21762;54.480;18.556;2023-10-31T02:17:39;67.38;;;26.17;;
35188;SDS011;21762;54.480;18.556;2023-10-31T02:20:10;69.07;;;25.42;;
35188;SDS011;21762;54.480;18.556;2023-10-31T02:22:40;61.75;;;25.05;;
35188;SDS011;21762;54.480;18.556;2023-10-31T02:25:15;46.15;;;23.15;;
35188;SDS011;21762;54.480;18.556;2023-10-31T02:27:45;53.92;;;24.25;;
35188;SDS011;21762;54.480;18.556;2023-10-31T02:30:14;49.47;;;22.90;;
35188;SDS011;21762;54.480;18.556;2023-10-31T02:32:42;49.88;;;22.50;;
35188;SDS011;21762;54.480;18.556;2023-10-31T02:35:12;47.97;;;21.33;;
35188;SDS011;21762;54.480;18.556;2023-10-31T02:37:42;53.05;;;21.08;;
35188;SDS011;21762;54.480;18.556;2023-10-31T02:40:12;46.45;;;20.13;;
35188;SDS011;21762;54.480;18.556;2023-10-31T02:42:41;40.70;;;18.27;;
35188;SDS011;21762;54.480;18.556;2023-10-31T02:45:10;52.28;;;20.65;;
35188;SDS011;21762;54.480;18.556;2023-10-31T02:47:39;50.50;;;19.45;;
35188;SDS011;21762;54.480;18.556;2023-10-31T02:50:08;41.42;;;20.15;;
35188;SDS011;21762;54.480;18.556;2023-10-31T02:52:37;42.75;;;19.40;;
35188;SDS011;21762;54.480;18.556;2023-10-31T02:55:08;47.83;;;19.98;;
35188;SDS011;21762;54.480;18.556;2023-10-31T02:57:36;45.03;;;19.33;;
35188;SDS011;21762;54.480;18.556;2023-10-31T03:00:06;44.33;;;20.30;;
35188;SDS011;21762;54.480;18.556;2023-10-31T03:02:36;47.70;;;20.05;;
35188;SDS011;21762;54.480;18.556;2023-10-31T03:05:05;47.78;;;19.88;;
35188;SDS011;21762;54.480;18.556;2023-10-31T03:07:34;51.25;;;21.95;;
35188;SDS011;21762;54.480;18.556;2023-10-31T03:10:03;36.88;;;20.42;;
35188;SDS011;21762;54.480;18.556;2023-10-31T03:12:34;41.67;;;20.40;;
35188;SDS011;21762;54.480;18.556;2023-10-31T03:15:04;40.25;;;18.40;;
35188;SDS011;21762;54.480;18.556;2023-10-31T03:17:33;41.85;;;17.83;;
35188;SDS011;21762;54.480;18.556;2023-10-31T03:20:02;38.83;;;19.70;;
35188;SDS011;21762;54.480;18.556;2023-10-31T03:22:31;40.95;;;20.13;;
35188;SDS011;21762;54.480;18.556;2023-10-31T03:24:59;41.25;;;19.70;;
35188;SDS011;21762;54.480;18.556;2023-10-31T03:27:28;43.35;;;19.48;;
35188;SDS011;21762;54.480;18.556;2023-10-31T03:29:59;46.70;;;20.67;;
35188;SDS011;21762;54.480;18.556;2023-10-31T03:32:28;48.53;;;20.73;;
35188;SDS011;21762;54.480;18.556;2023-10-31T03:34:56;38.70;;;19.42;;
35188;SDS011;21762;54.480;18.556;2023-10-31T03:37:25;43.03;;;20.23;;
35188;SDS011;21762;54.480;18.556;2023-10-31T03:39:54;42.25;;;19.35;;
35188;SDS011;21762;54.480;18.556;2023-10-31T03:42:22;41.58;;;19.60;;
35188;SDS011;21762;54.480;18.556;2023-10-31T03:44:51;43.90;;;18.95;;
35188;SDS011;21762;54.480;18.556;2023-10-31T03:47:22;46.35;;;21.38;;
35188;SDS011;21762;54.480;18.556;2023-10-31T03:49:50;41.80;;;18.98;;
35188;SDS011;21762;54.480;18.556;2023-10-31T03:52:19;34.78;;;19.05;;
35188;SDS011;21762;54.480;18.556;2023-10-31T03:54:48;42.40;;;20.05;;
35188;SDS011;21762;54.480;18.556;2023-10-31T03:57:16;37.42;;;19.48;;
35188;SDS011;21762;54.480;18.556;2023-10-31T03:59:45;43.38;;;18.08;;
35188;SDS011;21762;54.480;18.556;2023-10-31T04:02:14;32.65;;;16.42;;
35188;SDS011;21762;54.480;18.556;2023-10-31T04:04:44;37.05;;;17.27;;
35188;SDS011;21762;54.480;18.556;2023-10-31T04:07:13;42.30;;;18.70;;
35188;SDS011;21762;54.480;18.556;2023-10-31T04:09:42;37.28;;;17.80;;
35188;SDS011;21762;54.480;18.556;2023-10-31T04:12:11;32.65;;;16.55;;
35188;SDS011;21762;54.480;18.556;2023-10-31T04:14:40;35.30;;;16.80;;
35188;SDS011;21762;54.480;18.556;2023-10-31T04:17:08;36.35;;;18.92;;
35188;SDS011;21762;54.480;18.556;2023-10-31T04:19:37;38.20;;;19.48;;
35188;SDS011;21762;54.480;18.556;2023-10-31T04:22:08;38.03;;;18.25;;
35188;SDS011;21762;54.480;18.556;2023-10-31T04:24:37;32.65;;;17.45;;
35188;SDS011;21762;54.480;18.556;2023-10-31T04:27:05;38.47;;;17.85;;
35188;SDS011;21762;54.480;18.556;2023-10-31T04:29:34;32.20;;;17.10;;
35188;SDS011;21762;54.480;18.556;2023-10-31T04:32:03;40.47;;;17.58;;
35188;SDS011;21762;54.480;18.556;2023-10-31T04:34:32;34.35;;;16.67;;
35188;SDS011;21762;54.480;18.556;2023-10-31T04:37:01;37.80;;;17.83;;
35188;SDS011;21762;54.480;18.556;2023-10-31T04:39:31;35.70;;;17.77;;
35188;SDS011;21762;54.480;18.556;2023-10-31T04:41:59;39.28;;;18.33;;
35188;SDS011;21762;54.480;18.556;2023-10-31T04:44:28;29.42;;;17.08;;
35188;SDS011;21762;54.480;18.556;2023-10-31T04:46:57;27.02;;;15.65;;
35188;SDS011;21762;54.480;18.556;2023-10-31T04:49:25;30.80;;;16.70;;
35188;SDS011;21762;54.480;18.556;2023-10-31T04:51:54;33.65;;;17.45;;
35188;SDS011;21762;54.480;18.556;2023-10-31T04:54:23;35.47;;;17.13;;
35188;SDS011;21762;54.480;18.556;2023-10-31T04:56:53;31.30;;;16.40;;
35188;SDS011;21762;54.480;18.556;2023-10-31T04:59:22;28.77;;;16.48;;
35188;SDS011;21762;54.480;18.556;2023-10-31T05:01:51;34.78;;;17.77;;
35188;SDS011;21762;54.480;18.556;2023-10-31T05:04:20;32.28;;;15.48;;
35188;SDS011;21762;54.480;18.556;2023-10-31T05:06:48;28.27;;;15.18;;
35188;SDS011;21762;54.480;18.556;2023-10-31T05:09:17;31.55;;;15.13;;
35188;SDS011;21762;54.480;18.556;2023-10-31T05:11:47;32.85;;;16.83;;
35188;SDS011;21762;54.480;18.556;2023-10-31T05:14:17;32.65;;;15.85;;
35188;SDS011;21762;54.480;18.556;2023-10-31T05:16:46;29.30;;;15.88;;
35188;SDS011;21762;54.480;18.556;2023-10-31T05:19:14;34.42;;;16.75;;
35188;SDS011;21762;54.480;18.556;2023-10-31T05:21:43;33.33;;;17.00;;
35188;SDS011;21762;54.480;18.556;2023-10-31T05:24:12;25.63;;;15.95;;
35188;SDS011;21762;54.480;18.556;2023-10-31T05:26:40;23.73;;;14.40;;
35188;SDS011;21762;54.480;18.556;2023-10-31T05:29:10;31.30;;;16.13;;
35188;SDS011;21762;54.480;18.556;2023-10-31T05:31:40;36.00;;;14.38;;
35188;SDS011;21762;54.480;18.556;2023-10-31T05:34:10;27.55;;;15.38;;
35188;SDS011;21762;54.480;18.556;2023-10-31T05:36:39;23.75;;;13.93;;
35188;SDS011;21762;54.480;18.556;2023-10-31T05:39:07;23.42;;;13.75;;
35188;SDS011;21762;54.480;18.556;2023-10-31T05:41:36;22.70;;;13.25;;
35188;SDS011;21762;54.480;18.556;2023-10-31T05:44:05;26.83;;;14.35;;
35188;SDS011;21762;54.480;18.556;2023-10-31T05:46:37;23.92;;;14.63;;
35188;SDS011;21762;54.480;18.556;2023-10-31T05:49:08;26.90;;;14.45;;
35188;SDS011;21762;54.480;18.556;2023-10-31T05:51:37;19.95;;;12.90;;
35188;SDS011;21762;54.480;18.556;2023-10-31T05:54:06;24.48;;;13.90;;
35188;SDS011;21762;54.480;18.556;2023-10-31T05:56:35;26.17;;;13.93;;
35188;SDS011;21762;54.480;18.556;2023-10-31T05:59:04;23.42;;;13.65;;
35188;SDS011;21762;54.480;18.556;2023-10-31T06:01:33;20.27;;;12.77;;
35188;SDS011;21762;54.480;18.556;2023-10-31T06:04:03;26.73;;;12.85;;
35188;SDS011;21762;54.480;18.556;2023-10-31T06:06:36;25.50;;;13.07;;
35188;SDS011;21762;54.480;18.556;2023-10-31T06:09:05;23.60;;;13.35;;
35188;SDS011;21762;54.480;18.556;2023-10-31T06:11:36;30.95;;;16.27;;
35188;SDS011;21762;54.480;18.556;2023-10-31T06:14:04;27.80;;;13.68;;
35188;SDS011;21762;54.480;18.556;2023-10-31T06:16:33;24.60;;;14.10;;
35188;SDS011;21762;54.480;18.556;2023-10-31T06:19:02;37.70;;;14.98;;
35188;SDS011;21762;54.480;18.556;2023-10-31T06:21:31;48.83;;;17.55;;
35188;SDS011;21762;54.480;18.556;2023-10-31T06:24:01;31.73;;;15.13;;
35188;SDS011;21762;54.480;18.556;2023-10-31T06:26:29;33.78;;;15.38;;
35188;SDS011;21762;54.480;18.556;2023-10-31T06:28:58;29.80;;;14.93;;
35188;SDS011;21762;54.480;18.556;2023-10-31T06:31:28;29.42;;;14.63;;
35188;SDS011;21762;54.480;18.556;2023-10-31T06:33:57;42.55;;;16.15;;
35188;SDS011;21762;54.480;18.556;2023-10-31T06:36:26;39.22;;;17.08;;
35188;SDS011;21762;54.480;18.556;2023-10-31T06:38:54;31.38;;;16.00;;
35188;SDS011;21762;54.480;18.556;2023-10-31T06:41:25;29.02;;;16.45;;
35188;SDS011;21762;54.480;18.556;2023-10-31T06:43:54;37.10;;;18.33;;
35188;SDS011;21762;54.480;18.556;2023-10-31T06:46:23;32.72;;;17.58;;
35188;SDS011;21762;54.480;18.556;2023-10-31T06:48:52;39.60;;;17.88;;
35188;SDS011;21762;54.480;18.556;2023-10-31T06:51:21;35.13;;;16.98;;
35188;SDS011;21762;54.480;18.556;2023-10-31T06:53:50;31.90;;;15.93;;
35188;SDS011;21762;54.480;18.556;2023-10-31T06:56:19;31.30;;;17.35;;
35188;SDS011;21762;54.480;18.556;2023-10-31T06:58:49;33.13;;;16.30;;
35188;SDS011;21762;54.480;18.556;2023-10-31T07:01:18;27.88;;;14.85;;
35188;SDS011;21762;54.480;18.556;2023-10-31T07:03:47;29.52;;;15.43;;
35188;SDS011;21762;54.480;18.556;2023-10-31T07:06:16;34.70;;;15.70;;
35188;SDS011;21762;54.480;18.556;2023-10-31T07:08:45;32.90;;;15.52;;
35188;SDS011;21762;54.480;18.556;2023-10-31T07:11:13;29.17;;;14.13;;
35188;SDS011;21762;54.480;18.556;2023-10-31T07:13:42;31.30;;;15.07;;
35188;SDS011;21762;54.480;18.556;2023-10-31T07:16:13;32.25;;;16.70;;
35188;SDS011;21762;54.480;18.556;2023-10-31T07:18:41;22.17;;;14.25;;
35188;SDS011;21762;54.480;18.556;2023-10-31T07:21:10;27.50;;;15.82;;
35188;SDS011;21762;54.480;18.556;2023-10-31T07:23:40;26.73;;;15.05;;
35188;SDS011;21762;54.480;18.556;2023-10-31T07:26:09;33.88;;;15.93;;
35188;SDS011;21762;54.480;18.556;2023-10-31T07:28:38;39.60;;;16.15;;
35188;SDS011;21762;54.480;18.556;2023-10-31T07:31:06;29.73;;;15.38;;
35188;SDS011;21762;54.480;18.556;2023-10-31T07:33:37;27.05;;;15.95;;
35188;SDS011;21762;54.480;18.556;2023-10-31T07:36:06;25.77;;;14.18;;
35188;SDS011;21762;54.480;18.556;2023-10-31T07:38:35;27.15;;;15.27;;
35188;SDS011;21762;54.480;18.556;2023-10-31T07:41:04;26.40;;;15.93;;
35188;SDS011;21762;54.480;18.556;2023-10-31T07:43:33;28.27;;;15.07;;
35188;SDS011;21762;54.480;18.556;2023-10-31T07:46:03;32.10;;;15.63;;
35188;SDS011;21762;54.480;18.556;2023-10-31T07:48:32;32.30;;;16.88;;
35188;SDS011;21762;54.480;18.556;2023-10-31T07:51:02;29.77;;;15.82;;
35188;SDS011;21762;54.480;18.556;2023-10-31T07:53:32;34.00;;;15.98;;
35188;SDS011;21762;54.480;18.556;2023-10-31T07:56:00;31.08;;;16.85;;
35188;SDS011;21762;54.480;18.556;2023-10-31T07:58:29;36.55;;;16.98;;
35188;SDS011;21762;54.480;18.556;2023-10-31T08:00:58;32.05;;;18.17;;
35188;SDS011;21762;54.480;18.556;2023-10-31T08:03:26;35.00;;;17.80;;
35188;SDS011;21762;54.480;18.556;2023-10-31T08:05:55;30.05;;;16.95;;
35188;SDS011;21762;54.480;18.556;2023-10-31T08:08:25;33.83;;;18.42;;
35188;SDS011;21762;54.480;18.556;2023-10-31T08:10:54;34.85;;;17.67;;
35188;SDS011;21762;54.480;18.556;2023-10-31T08:13:24;29.20;;;17.20;;
35188;SDS011;21762;54.480;18.556;2023-10-31T08:15:53;30.63;;;17.15;;
35188;SDS011;21762;54.480;18.556;2023-10-31T08:18:21;35.60;;;16.77;;
35188;SDS011;21762;54.480;18.556;2023-10-31T08:20:51;32.25;;;17.38;;
35188;SDS011;21762;54.480;18.556;2023-10-31T08:23:20;37.35;;;16.73;;
35188;SDS011;21762;54.480;18.556;2023-10-31T08:25:51;30.77;;;16.38;;
35188;SDS011;21762;54.480;18.556;2023-10-31T08:28:19;31.77;;;16.20;;
35188;SDS011;21762;54.480;18.556;2023-10-31T08:30:49;26.83;;;16.58;;
35188;SDS011;21762;54.480;18.556;2023-10-31T08:33:18;23.98;;;14.80;;
35188;SDS011;21762;54.480;18.556;2023-10-31T08:35:46;34.03;;;17.27;;
35188;SDS011;21762;54.480;18.556;2023-10-31T08:38:15;31.67;;;17.83;;
35188;SDS011;21762;54.480;18.556;2023-10-31T08:40:47;30.60;;;16.85;;
35188;SDS011;21762;54.480;18.556;2023-10-31T08:43:17;29.23;;;15.95;;
35188;SDS011;21762;54.480;18.556;2023-10-31T08:45:46;29.02;;;17.10;;
35188;SDS011;21762;54.480;18.556;2023-10-31T08:48:15;28.92;;;15.90;;
35188;SDS011;21762;54.480;18.556;2023-10-31T08:50:44;28.85;;;17.25;;
35188;SDS011;21762;54.480;18.556;2023-10-31T08:53:13;28.52;;;16.13;;
35188;SDS011;21762;54.480;18.556;2023-10-31T08:55:42;34.38;;;18.73;;
35188;SDS011;21762;54.480;18.556;2023-10-31T08:58:11;38.50;;;18.80;;
35188;SDS011;21762;54.480;18.556;2023-10-31T09:00:41;49.72;;;20.25;;
35188;SDS011;21762;54.480;18.556;2023-10-31T09:03:10;37.65;;;18.25;;
35188;SDS011;21762;54.480;18.556;2023-10-31T09:05:39;37.85;;;17.80;;
35188;SDS011;21762;54.480;18.556;2023-10-31T09:08:08;37.10;;;17.60;;
35188;SDS011;21762;54.480;18.556;2023-10-31T09:10:37;34.20;;;16.67;;
35188;SDS011;21762;54.480;18.556;2023-10-31T09:13:06;27.30;;;17.13;;
35188;SDS011;21762;54.480;18.556;2023-10-31T09:15:35;32.42;;;16.20;;
35188;SDS011;21762;54.480;18.556;2023-10-31T09:18:05;32.15;;;16.27;;
35188;SDS011;21762;54.480;18.556;2023-10-31T09:20:34;29.73;;;17.33;;
35188;SDS011;21762;54.480;18.556;2023-10-31T09:23:03;34.10;;;15.85;;
35188;SDS011;21762;54.480;18.556;2023-10-31T09:25:32;30.30;;;15.68;;
35188;SDS011;21762;54.480;18.556;2023-10-31T09:28:01;32.60;;;16.88;;
35188;SDS011;21762;54.480;18.556;2023-10-31T09:30:29;29.92;;;15.40;;
35188;SDS011;21762;54.480;18.556;2023-10-31T09:32:58;29.27;;;14.70;;
35188;SDS011;21762;54.480;18.556;2023-10-31T09:35:28;28.80;;;14.57;;
35188;SDS011;21762;54.480;18.556;2023-10-31T09:37:57;22.80;;;13.63;;
35188;SDS011;21762;54.480;18.556;2023-10-31T09:40:25;26.45;;;14.15;;
35188;SDS011;21762;54.480;18.556;2023-10-31T09:42:54;22.42;;;13.98;;
35188;SDS011;21762;54.480;18.556;2023-10-31T09:45:23;25.10;;;14.77;;
35188;SDS011;21762;54.480;18.556;2023-10-31T09:47:52;23.65;;;14.32;;
35188;SDS011;21762;54.480;18.556;2023-10-31T09:50:21;22.75;;;13.93;;
35188;SDS011;21762;54.480;18.556;2023-10-31T09:52:52;50.08;;;25.50;;
35188;SDS011;21762;54.480;18.556;2023-10-31T09:55:21;63.22;;;30.83;;
35188;SDS011;21762;54.480;18.556;2023-10-31T09:57:50;42.47;;;22.48;;
35188;SDS011;21762;54.480;18.556;2023-10-31T10:00:19;26.58;;;14.75;;
35188;SDS011;21762;54.480;18.556;2023-10-31T10:02:49;28.20;;;14.45;;
35188;SDS011;21762;54.480;18.556;2023-10-31T10:05:18;30.52;;;15.82;;
35188;SDS011;21762;54.480;18.556;2023-10-31T10:07:47;31.30;;;17.15;;
35188;SDS011;21762;54.480;18.556;2023-10-31T10:10:19;37.63;;;19.65;;
35188;SDS011;21762;54.480;18.556;2023-10-31T10:12:48;31.95;;;18.65;;
35188;SDS011;21762;54.480;18.556;2023-10-31T10:15:17;37.53;;;19.40;;
35188;SDS011;21762;54.480;18.556;2023-10-31T10:17:49;33.17;;;18.73;;
35188;SDS011;21762;54.480;18.556;2023-10-31T10:20:18;37.47;;;16.42;;
35188;SDS011;21762;54.480;18.556;2023-10-31T10:22:48;23.30;;;13.00;;
35188;SDS011;21762;54.480;18.556;2023-10-31T10:25:17;22.70;;;14.70;;
35188;SDS011;21762;54.480;18.556;2023-10-31T10:27:47;25.95;;;15.18;;
35188;SDS011;21762;54.480;18.556;2023-10-31T10:30:16;26.05;;;15.32;;
35188;SDS011;21762;54.480;18.556;2023-10-31T10:32:44;37.50;;;19.20;;
35188;SDS011;21762;54.480;18.556;2023-10-31T10:35:13;23.67;;;13.93;;
35188;SDS011;21762;54.480;18.556;2023-10-31T10:37:42;19.77;;;12.35;;
35188;SDS011;21762;54.480;18.556;2023-10-31T10:40:11;19.40;;;12.98;;
35188;SDS011;21762;54.480;18.556;2023-10-31T10:42:43;15.55;;;9.57;;
35188;SDS011;21762;54.480;18.556;2023-10-31T10:45:14;15.57;;;9.57;;
35188;SDS011;21762;54.480;18.556;2023-10-31T10:47:45;15.53;;;9.77;;
35188;SDS011;21762;54.480;18.556;2023-10-31T10:50:15;13.13;;;8.35;;
35188;SDS011;21762;54.480;18.556;2023-10-31T10:55:19;14.65;;;8.68;;
35188;SDS011;21762;54.480;18.556;2023-10-31T10:57:55;15.45;;;9.00;;
35188;SDS011;21762;54.480;18.556;2023-10-31T11:00:27;10.93;;;7.50;;
35188;SDS011;21762;54.480;18.556;2023-10-31T11:02:57;11.25;;;7.88;;
35188;SDS011;21762;54.480;18.556;2023-10-31T11:05:26;9.65;;;6.93;;
35188;SDS011;21762;54.480;18.556;2023-10-31T11:07:56;12.18;;;7.60;;
35188;SDS011;21762;54.480;18.556;2023-10-31T11:10:26;12.50;;;6.57;;
35188;SDS011;21762;54.480;18.556;2023-10-31T11:12:57;8.43;;;5.55;;
35188;SDS011;21762;54.480;18.556;2023-10-31T11:15:26;8.68;;;5.13;;
35188;SDS011;21762;54.480;18.556;2023-10-31T11:17:55;7.35;;;5.50;;
35188;SDS011;21762;54.480;18.556;2023-10-31T11:20:25;12.65;;;6.38;;
35188;SDS011;21762;54.480;18.556;2023-10-31T11:22:56;8.80;;;5.68;;
35188;SDS011;21762;54.480;18.556;2023-10-31T11:25:25;9.82;;;5.85;;
35188;SDS011;21762;54.480;18.556;2023-10-31T11:27:56;9.52;;;6.15;;
35188;SDS011;21762;54.480;18.556;2023-10-31T11:30:39;7.60;;;5.50;;
35188;SDS011;21762;54.480;18.556;2023-10-31T11:33:11;8.35;;;6.20;;
35188;SDS011;21762;54.480;18.556;2023-10-31T11:35:41;8.60;;;5.72;;
35188;SDS011;21762;54.480;18.556;2023-10-31T11:38:12;7.97;;;6.13;;
35188;SDS011;21762;54.480;18.556;2023-10-31T11:40:59;8.88;;;4.80;;
35188;SDS011;21762;54.480;18.556;2023-10-31T11:43:37;8.13;;;5.45;;
35188;SDS011;21762;54.480;18.556;2023-10-31T11:46:22;8.88;;;5.28;;
35188;SDS011;21762;54.480;18.556;2023-10-31T11:48:52;9.13;;;5.35;;
35188;SDS011;21762;54.480;18.556;2023-10-31T11:51:22;8.30;;;4.88;;
35188;SDS011;21762;54.480;18.556;2023-10-31T11:53:51;7.82;;;5.68;;
35188;SDS011;21762;54.480;18.556;2023-10-31T11:56:20;9.77;;;5.28;;
35188;SDS011;21762;54.480;18.556;2023-10-31T11:58:57;7.35;;;4.57;;
35188;SDS011;21762;54.480;18.556;2023-10-31T12:01:26;5.22;;;4.53;;
35188;SDS011;21762;54.480;18.556;2023-10-31T12:03:56;6.40;;;4.55;;
35188;SDS011;21762;54.480;18.556;2023-10-31T12:06:25;8.98;;;4.53;;
35188;SDS011;21762;54.480;18.556;2023-10-31T12:08:58;5.22;;;3.83;;
35188;SDS011;21762;54.480;18.556;2023-10-31T12:11:28;5.53;;;3.55;;
35188;SDS011;21762;54.480;18.556;2023-10-31T12:13:59;5.32;;;3.30;;
35188;SDS011;21762;54.480;18.556;2023-10-31T12:16:31;7.68;;;4.32;;
35188;SDS011;21762;54.480;18.556;2023-10-31T12:19:00;7.15;;;3.55;;
35188;SDS011;21762;54.480;18.556;2023-10-31T12:21:34;11.95;;;3.38;;
35188;SDS011;21762;54.480;18.556;2023-10-31T12:24:06;5.10;;;3.25;;
35188;SDS011;21762;54.480;18.556;2023-10-31T12:26:36;5.05;;;3.80;;
35188;SDS011;21762;54.480;18.556;2023-10-31T12:29:11;6.25;;;3.08;;
35188;SDS011;21762;54.480;18.556;2023-10-31T12:31:44;3.53;;;3.10;;
35188;SDS011;21762;54.480;18.556;2023-10-31T12:34:14;4.97;;;3.10;;
35188;SDS011;21762;54.480;18.556;2023-10-31T12:36:44;3.92;;;2.70;;
35188;SDS011;21762;54.480;18.556;2023-10-31T12:39:14;3.30;;;2.85;;
35188;SDS011;21762;54.480;18.556;2023-10-31T12:41:45;4.75;;;2.97;;
35188;SDS011;21762;54.480;18.556;2023-10-31T12:44:16;7.45;;;3.00;;
35188;SDS011;21762;54.480;18.556;2023-10-31T12:46:48;5.95;;;3.10;;
35188;SDS011;21762;54.480;18.556;2023-10-31T12:49:19;4.07;;;3.08;;
35188;SDS011;21762;54.480;18.556;2023-10-31T12:51:58;4.20;;;3.00;;
35188;SDS011;21762;54.480;18.556;2023-10-31T12:54:29;5.68;;;2.72;;
35188;SDS011;21762;54.480;18.556;2023-10-31T12:56:59;4.60;;;2.47;;
35188;SDS011;21762;54.480;18.556;2023-10-31T12:59:31;3.67;;;2.63;;
35188;SDS011;21762;54.480;18.556;2023-10-31T13:02:06;3.72;;;3.03;;
35188;SDS011;21762;54.480;18.556;2023-10-31T13:04:43;8.02;;;2.75;;
35188;SDS011;21762;54.480;18.556;2023-10-31T13:07:12;3.65;;;2.90;;
35188;SDS011;21762;54.480;18.556;2023-10-31T13:09:41;4.38;;;2.67;;
35188;SDS011;21762;54.480;18.556;2023-10-31T13:12:10;4.13;;;2.75;;
35188;SDS011;21762;54.480;18.556;2023-10-31T13:14:40;5.38;;;3.38;;
35188;SDS011;21762;54.480;18.556;2023-10-31T13:17:09;3.10;;;2.78;;
35188;SDS011;21762;54.480;18.556;2023-10-31T13:19:38;4.80;;;3.30;;
35188;SDS011;21762;54.480;18.556;2023-10-31T13:22:08;3.40;;;2.90;;
35188;SDS011;21762;54.480;18.556;2023-10-31T13:24:37;4.90;;;3.20;;
35188;SDS011;21762;54.480;18.556;2023-10-31T13:27:07;4.28;;;2.97;;
35188;SDS011;21762;54.480;18.556;2023-10-31T13:29:43;4.30;;;3.30;;
35188;SDS011;21762;54.480;18.556;2023-10-31T13:32:12;3.97;;;3.00;;
35188;SDS011;21762;54.480;18.556;2023-10-31T13:34:42;4.25;;;3.03;;
35188;SDS011;21762;54.480;18.556;2023-10-31T13:37:11;6.85;;;3.05;;
35188;SDS011;21762;54.480;18.556;2023-10-31T13:39:40;5.43;;;3.05;;
35188;SDS011;21762;54.480;18.556;2023-10-31T13:42:09;5.40;;;3.20;;
35188;SDS011;21762;54.480;18.556;2023-10-31T13:44:38;9.45;;;2.80;;
35188;SDS011;21762;54.480;18.556;2023-10-31T13:47:09;3.95;;;3.20;;
35188;SDS011;21762;54.480;18.556;2023-10-31T13:49:38;5.18;;;3.25;;
35188;SDS011;21762;54.480;18.556;2023-10-31T13:52:07;5.53;;;2.85;;
35188;SDS011;21762;54.480;18.556;2023-10-31T13:54:36;5.25;;;3.15;;
35188;SDS011;21762;54.480;18.556;2023-10-31T13:57:05;4.50;;;3.22;;
35188;SDS011;21762;54.480;18.556;2023-10-31T13:59:34;6.72;;;3.35;;
35188;SDS011;21762;54.480;18.556;2023-10-31T14:02:02;7.10;;;3.80;;
35188;SDS011;21762;54.480;18.556;2023-10-31T14:04:33;4.60;;;3.28;;
35188;SDS011;21762;54.480;18.556;2023-10-31T14:07:02;6.82;;;3.65;;
35188;SDS011;21762;54.480;18.556;2023-10-31T14:09:31;6.45;;;3.30;;
35188;SDS011;21762;54.480;18.556;2023-10-31T14:12:00;6.93;;;3.78;;
35188;SDS011;21762;54.480;18.556;2023-10-31T14:14:30;5.85;;;3.60;;
35188;SDS011;21762;54.480;18.556;2023-10-31T14:16:58;9.05;;;3.85;;
35188;SDS011;21762;54.480;18.556;2023-10-31T14:19:27;8.18;;;3.70;;
35188;SDS011;21762;54.480;18.556;2023-10-31T14:21:57;5.30;;;2.90;;
35188;SDS011;21762;54.480;18.556;2023-10-31T14:24:27;5.78;;;3.33;;
35188;SDS011;21762;54.480;18.556;2023-10-31T14:26:56;7.40;;;2.83;;
35188;SDS011;21762;54.480;18.556;2023-10-31T14:29:26;6.75;;;3.33;;
35188;SDS011;21762;54.480;18.556;2023-10-31T14:32:00;6.47;;;3.05;;